createdAt,value
2018-12-05T00:05:00.805Z,1.8
2018-12-05T00:10:00.802Z,2.4
2018-12-05T00:15:01.072Z,2.6
2018-12-05T00:20:01.274Z,2.7
2018-12-05T00:25:00.827Z,2.8
2018-12-05T00:30:00.909Z,3.8
2018-12-05T00:35:00.802Z,5.2
2018-12-05T00:40:00.829Z,6.4
2018-12-05T00:45:00.832Z,6.4
2018-12-05T00:50:00.900Z,6.5
2018-12-05T00:55:00.850Z,5.7
2018-12-05T01:00:00.837Z,4.4
2018-12-05T01:05:00.846Z,3.2
2018-12-05T01:10:00.810Z,3.3
2018-12-05T01:15:00.820Z,3.1
2018-12-05T01:20:00.813Z,3.2
2018-12-05T01:30:00.824Z,3.2
2018-12-05T01:35:00.825Z,3.1
2018-12-05T01:40:00.819Z,3.2
2018-12-05T01:45:00.822Z,3.1
2018-12-05T01:50:00.821Z,3.1
2018-12-05T01:55:00.818Z,3.1
2018-12-05T02:00:00.946Z,3.2
2018-12-05T02:05:01.210Z,3.1
2018-12-05T02:10:00.821Z,3.1
2018-12-05T02:15:00.829Z,3.1
2018-12-05T02:20:00.839Z,3.2
2018-12-05T02:25:00.824Z,3.4
2018-12-05T02:30:00.829Z,3.9
2018-12-05T02:35:00.832Z,4.0
2018-12-05T02:45:00.825Z,4.0
2018-12-05T02:50:00.831Z,3.8
2018-12-05T02:55:00.833Z,3.4
2018-12-05T03:00:01.307Z,3.6
2018-12-05T03:05:00.835Z,4.0
2018-12-05T03:15:02.287Z,4.1
2018-12-05T03:20:00.839Z,3.9
2018-12-05T03:25:00.842Z,3.6
2018-12-05T03:30:00.840Z,3.3
2018-12-05T03:40:00.848Z,3.5
2018-12-05T03:45:00.851Z,3.6
2018-12-05T03:50:01.179Z,3.7
2018-12-05T03:55:00.853Z,4.2
2018-12-05T04:00:00.889Z,4.4
2018-12-05T04:05:00.913Z,4.8
2018-12-05T04:10:00.863Z,4.8
2018-12-05T04:15:00.881Z,5.2
2018-12-05T04:20:00.851Z,4.8
2018-12-05T04:25:00.857Z,5.2
2018-12-05T04:30:01.446Z,5.2
2018-12-05T04:45:00.890Z,6.6
2018-12-05T04:50:00.826Z,7.8
2018-12-05T04:55:00.862Z,8.9
2018-12-05T05:00:00.861Z,10.0
2018-12-05T05:05:00.863Z,10.6
2018-12-05T05:10:00.860Z,9.8
2018-12-05T05:15:00.860Z,8.6
2018-12-05T05:20:05.884Z,8.0
2018-12-05T05:25:00.896Z,7.6
2018-12-05T05:30:00.865Z,7.6
2018-12-05T05:40:00.865Z,8.2
2018-12-05T05:45:00.934Z,8.1
2018-12-05T05:50:00.869Z,8.9
2018-12-05T05:55:01.191Z,9.1
2018-12-05T06:00:01.957Z,9.7
2018-12-05T06:05:00.875Z,9.8
2018-12-05T06:10:00.873Z,10.5
2018-12-05T06:15:00.876Z,11.1
2018-12-05T06:25:00.878Z,12.8
2018-12-05T06:30:05.908Z,14.2
2018-12-05T06:35:00.879Z,15.1
2018-12-05T06:40:00.878Z,16.0
2018-12-05T06:45:00.878Z,17.8
2018-12-05T06:50:00.849Z,19.8
2018-12-05T06:55:01.309Z,20.1
2018-12-05T07:00:02.520Z,20.6
2018-12-05T07:05:00.919Z,19.9
2018-12-05T07:10:00.918Z,19.6
2018-12-05T07:15:00.919Z,18.1
2018-12-05T07:20:00.918Z,19.1
2018-12-05T07:25:00.922Z,18.9
2018-12-05T07:30:01.195Z,20.0
2018-12-05T07:35:00.968Z,21.1
2018-12-05T07:40:00.931Z,21.8
2018-12-05T07:45:00.930Z,21.6
2018-12-05T07:50:00.939Z,22.3
2018-12-05T07:55:00.937Z,22.4
2018-12-05T08:00:00.938Z,21.2
2018-12-05T08:10:00.901Z,21.6
2018-12-05T08:15:00.964Z,21.3
2018-12-05T08:20:00.942Z,20.9
2018-12-05T08:25:00.902Z,22.0
2018-12-05T08:30:00.908Z,22.3
2018-12-05T08:35:00.902Z,22.4
2018-12-05T08:40:00.917Z,22.9
2018-12-05T08:45:00.903Z,23.1
2018-12-05T08:55:00.917Z,22.7
2018-12-05T09:00:00.918Z,22.1
2018-12-05T09:05:00.893Z,21.7
2018-12-05T09:10:01.012Z,21.5
2018-12-05T09:15:00.923Z,20.7
2018-12-05T09:20:00.919Z,18.8
2018-12-05T09:25:00.924Z,18.0
2018-12-05T09:30:00.922Z,17.2
2018-12-05T09:35:00.918Z,15.4
2018-12-05T09:45:00.920Z,15.9
2018-12-05T09:50:00.925Z,15.9
2018-12-05T09:55:00.927Z,15.7
2018-12-05T10:00:00.928Z,16.3
2018-12-05T10:10:00.927Z,15.6
2018-12-05T10:15:00.931Z,14.6
2018-12-05T10:20:00.929Z,14.8
2018-12-05T10:25:00.933Z,15.6
2018-12-05T10:30:00.947Z,16.1
2018-12-05T10:35:00.930Z,17.5
2018-12-05T10:40:01.048Z,19.2
2018-12-05T10:45:01.094Z,21.2
2018-12-05T10:50:01.214Z,21.8
2018-12-05T10:55:02.120Z,22.9
2018-12-05T11:00:00.933Z,22.9
2018-12-05T11:05:00.996Z,23.8
2018-12-05T11:10:00.935Z,23.5
2018-12-05T11:15:00.936Z,23.7
2018-12-05T11:20:01.578Z,22.9
2018-12-05T11:25:00.947Z,24.4
2018-12-05T11:30:00.906Z,24.6
2018-12-05T11:35:00.943Z,25.1
2018-12-05T11:40:00.939Z,25.5
2018-12-05T11:45:00.942Z,26.8
2018-12-05T11:50:00.940Z,26.7
2018-12-05T11:55:00.983Z,26.4
2018-12-05T12:00:00.984Z,26.4
2018-12-05T12:05:00.980Z,26.8
2018-12-05T12:15:00.944Z,25.7
2018-12-05T12:20:00.953Z,25.9
2018-12-05T12:25:00.954Z,26.4
2018-12-05T12:30:00.951Z,26.0
2018-12-05T12:35:00.954Z,26.7
2018-12-05T12:40:01.558Z,27.1
2018-12-05T12:45:00.954Z,27.4
2018-12-05T12:50:00.951Z,27.4
2018-12-05T12:55:00.978Z,27.2
2018-12-05T13:00:00.978Z,26.7
2018-12-05T13:05:01.344Z,27.5
2018-12-05T13:10:00.993Z,26.7
2018-12-05T13:15:00.967Z,26.6
2018-12-05T13:20:00.959Z,28.1
2018-12-05T13:25:00.960Z,28.6
2018-12-05T13:30:00.968Z,28.0
2018-12-05T13:35:01.016Z,29.3
2018-12-05T13:40:00.970Z,29.4
2018-12-05T13:45:00.976Z,29.8
2018-12-05T13:50:00.969Z,29.8
2018-12-05T13:55:00.963Z,30.5
2018-12-05T14:00:01.038Z,29.8
2018-12-05T14:05:00.966Z,30.2
2018-12-05T14:10:00.962Z,28.4
2018-12-05T14:15:00.967Z,28.2
2018-12-05T14:20:00.969Z,27.5
2018-12-05T14:25:00.971Z,28.2
2018-12-05T14:30:01.538Z,28.9
2018-12-05T14:35:01.036Z,30.6
2018-12-05T14:40:01.103Z,31.9
2018-12-05T14:45:00.971Z,33.0
2018-12-05T14:50:00.948Z,33.0
2018-12-05T14:55:00.976Z,32.4
2018-12-05T15:00:00.978Z,31.8
2018-12-05T15:05:03.718Z,31.0
2018-12-05T15:10:01.246Z,30.6
2018-12-05T15:15:01.006Z,31.1
2018-12-05T15:20:01.028Z,31.8
2018-12-05T15:25:01.012Z,33.5
2018-12-05T15:30:01.014Z,34.8
2018-12-05T15:40:00.980Z,36.2
2018-12-05T15:45:00.985Z,35.6
2018-12-05T15:50:00.986Z,34.6
2018-12-05T15:55:00.989Z,33.9
2018-12-05T16:00:00.986Z,35.2
2018-12-05T16:05:01.361Z,35.4
2018-12-05T16:10:00.987Z,36.0
2018-12-05T16:15:00.990Z,36.8
2018-12-05T16:20:02.370Z,38.2
2018-12-05T16:25:00.990Z,38.4
2018-12-05T16:30:00.996Z,39.0
2018-12-05T16:35:00.989Z,40.0
2018-12-05T16:40:01.021Z,41.3
2018-12-05T16:45:01.019Z,41.1
2018-12-05T16:50:06.052Z,40.3
2018-12-05T16:55:01.088Z,39.4
2018-12-05T17:00:01.024Z,40.6
2018-12-05T17:05:01.139Z,39.9
2018-12-05T17:10:01.032Z,39.0
2018-12-05T17:15:01.324Z,37.9
2018-12-05T17:20:01.027Z,36.6
2018-12-05T17:25:01.029Z,33.2
2018-12-05T17:30:01.024Z,31.5
2018-12-05T17:35:01.065Z,29.2
2018-12-05T17:40:01.012Z,28.5
2018-12-05T17:45:01.002Z,28.1
2018-12-05T17:50:01.034Z,26.7
2018-12-05T17:55:01.033Z,25.4
2018-12-05T18:00:01.036Z,25.8
2018-12-05T18:05:01.044Z,24.7
2018-12-05T18:10:01.032Z,23.5
2018-12-05T18:15:01.034Z,24.1
2018-12-05T18:20:01.033Z,23.1
2018-12-05T18:25:01.032Z,22.1
2018-12-05T18:30:01.036Z,21.7
2018-12-05T18:35:01.036Z,21.4
2018-12-05T18:40:01.036Z,19.9
2018-12-05T18:45:01.036Z,19.8
2018-12-05T18:50:01.044Z,19.3
2018-12-05T18:55:01.048Z,18.9
2018-12-05T19:00:01.929Z,17.7
2018-12-05T19:05:01.064Z,17.8
2018-12-05T19:10:01.053Z,16.8
2018-12-05T19:15:01.057Z,16.1
2018-12-05T19:20:01.060Z,15.5
2018-12-05T19:25:01.057Z,16.1
2018-12-05T19:30:01.059Z,16.5
2018-12-05T19:35:01.047Z,16.8
2018-12-05T19:40:01.059Z,17.2
2018-12-05T19:45:01.055Z,17.1
2018-12-05T19:50:01.027Z,16.5
2018-12-05T19:55:01.056Z,14.8
2018-12-05T20:00:01.037Z,14.0
2018-12-05T20:05:01.075Z,12.8
2018-12-05T20:10:01.067Z,12.0
2018-12-05T20:15:01.067Z,10.4
2018-12-05T20:20:01.074Z,11.1
2018-12-05T20:25:01.071Z,10.9
2018-12-05T20:30:01.074Z,11.2
2018-12-05T20:35:01.077Z,11.6
2018-12-05T20:40:01.079Z,12.5
2018-12-05T20:45:01.107Z,11.2
2018-12-05T20:50:01.083Z,10.8
2018-12-05T20:55:01.088Z,10.1
2018-12-05T21:00:01.066Z,8.9
2018-12-05T21:05:01.047Z,8.4
2018-12-05T21:10:01.049Z,8.3
2018-12-05T21:15:01.114Z,7.6
2018-12-05T21:25:01.050Z,7.4
2018-12-05T21:30:03.080Z,7.0
2018-12-05T21:35:01.051Z,6.7
2018-12-05T21:40:01.050Z,6.6
2018-12-05T21:45:01.052Z,6.4
2018-12-05T21:50:01.058Z,6.9
2018-12-05T21:55:01.056Z,6.8
2018-12-05T22:00:01.054Z,7.0
2018-12-05T22:05:01.058Z,6.8
2018-12-05T22:10:01.100Z,7.4
2018-12-05T22:15:01.094Z,6.6
2018-12-05T22:20:01.091Z,6.5
2018-12-05T22:25:01.096Z,7.1
2018-12-05T22:30:01.099Z,7.5
2018-12-05T22:35:01.100Z,7.0
2018-12-05T22:45:01.064Z,6.6
2018-12-05T22:50:01.030Z,6.2
2018-12-05T22:55:01.066Z,5.7
2018-12-05T23:00:01.069Z,5.7
2018-12-05T23:10:01.065Z,6.2
2018-12-05T23:15:01.072Z,5.9
2018-12-05T23:20:01.070Z,6.4
2018-12-05T23:25:01.101Z,6.4
2018-12-05T23:30:01.479Z,6.8
2018-12-05T23:35:01.101Z,6.5
2018-12-05T23:45:01.215Z,6.5
2018-12-05T23:50:01.112Z,7.0
2018-12-05T23:55:01.120Z,6.9
